Belogorsk, Russia
Current Conditions -  °F | °C
As of 10:00 AM on Sunday 23 Nov 2014 (Local Time) from UHBB Reporting Station
Clear Clear  
Wind Chill:   Ceiling: Unl
Heat Index:   Visibility: 6mi
Dew Point: -2°   Wind: 2mph
Humidity: 85%   Direction: NA
Pressure: 30.15"   Gusts: NA
Location:  50.92°N, 128.47°E
Report Text: UHBB 230100Z VRB01MPS CAVOK M17/M19 Q1021 NOSIG RMK QFE748/099736810350
Loading
Personal Weather Stations






























Interactive Weather Map New forecast layout! Learn more

10-Day Weather Forecast

Advertisements
Track Severe Weather on mobile